createdAt,value
2022-11-20T00:00:30.558Z,6.45
2022-11-20T00:02:59.565Z,6.45
2022-11-20T00:05:27.372Z,6.38
2022-11-20T00:07:55.064Z,6.36
2022-11-20T00:10:22.799Z,6.38
2022-11-20T00:12:50.686Z,6.39
2022-11-20T00:15:18.552Z,6.44
2022-11-20T00:17:47.542Z,6.54
2022-11-20T00:20:16.970Z,6.62
2022-11-20T00:22:44.766Z,6.63
2022-11-20T00:25:12.524Z,6.57
2022-11-20T00:27:40.338Z,6.56
2022-11-20T00:30:12.378Z,6.57
2022-11-20T00:32:42.531Z,6.67
2022-11-20T00:35:10.736Z,6.62
2022-11-20T00:37:39.765Z,6.67
2022-11-20T00:40:08.848Z,6.63
2022-11-20T00:42:37.046Z,6.63
2022-11-20T00:45:05.266Z,6.71
2022-11-20T00:47:32.980Z,6.76
2022-11-20T00:50:00.737Z,6.72
2022-11-20T00:52:28.494Z,6.73
2022-11-20T00:54:57.514Z,6.65
2022-11-20T00:57:25.286Z,6.62
2022-11-20T00:59:53.061Z,6.70
2022-11-20T01:02:20.733Z,6.76
2022-11-20T01:04:48.511Z,6.79
2022-11-20T01:07:16.799Z,6.73
2022-11-20T01:09:44.532Z,6.68
2022-11-20T01:12:13.609Z,6.59
2022-11-20T01:14:41.284Z,6.60
2022-11-20T01:17:08.980Z,6.69
2022-11-20T01:19:36.725Z,6.55
2022-11-20T01:22:04.451Z,6.34
2022-11-20T01:24:32.200Z,6.27
2022-11-20T01:26:59.946Z,6.35
2022-11-20T01:29:29.019Z,6.36
2022-11-20T01:31:56.735Z,6.34
2022-11-20T01:34:25.886Z,6.36
2022-11-20T01:36:54.731Z,6.46
2022-11-20T01:39:24.517Z,6.52
2022-11-20T01:42:12.070Z,6.47
2022-11-20T01:44:53.840Z,6.38
2022-11-20T01:47:27.495Z,6.43
2022-11-20T01:50:00.995Z,6.43
2022-11-20T01:52:33.932Z,6.38
2022-11-20T01:55:05.710Z,6.35
2022-11-20T01:57:36.291Z,6.38
2022-11-20T02:00:08.629Z,6.36
2022-11-20T02:02:37.332Z,6.34
2022-11-20T02:05:14.110Z,6.29
2022-11-20T02:07:42.822Z,6.47
2022-11-20T02:10:10.535Z,6.43
2022-11-20T02:12:55.772Z,6.34
2022-11-20T02:15:29.026Z,6.31
2022-11-20T02:17:58.164Z,6.38
2022-11-20T02:20:25.869Z,6.45
2022-11-20T02:22:59.967Z,6.51
2022-11-20T02:25:31.083Z,6.51
2022-11-20T02:27:58.809Z,6.45
2022-11-20T02:30:26.779Z,6.46
2022-11-20T02:32:54.577Z,6.46
2022-11-20T02:35:46.894Z,6.39
2022-11-20T02:38:15.585Z,6.36
2022-11-20T02:40:44.932Z,6.54
2022-11-20T02:43:13.118Z,6.66
2022-11-20T02:45:40.953Z,6.71
2022-11-20T02:48:09.636Z,6.83
2022-11-20T02:50:39.373Z,6.77
2022-11-20T02:53:07.231Z,6.81
2022-11-20T02:55:35.209Z,6.87
2022-11-20T02:58:04.532Z,6.94
2022-11-20T03:00:32.906Z,6.80
2022-11-20T03:03:00.659Z,6.70
2022-11-20T03:05:28.339Z,6.60
2022-11-20T03:07:55.989Z,6.61
2022-11-20T03:10:23.753Z,6.76
2022-11-20T03:12:56.185Z,6.86
2022-11-20T03:15:26.058Z,6.78
2022-11-20T03:17:55.790Z,6.65
2022-11-20T03:20:24.062Z,6.66
2022-11-20T03:22:51.899Z,6.55
2022-11-20T03:25:19.587Z,6.46
2022-11-20T03:27:47.368Z,6.46
2022-11-20T03:30:15.903Z,6.41
2022-11-20T03:32:45.403Z,6.51
2022-11-20T03:35:13.188Z,6.54
2022-11-20T03:37:40.849Z,6.47
2022-11-20T03:40:09.473Z,6.55
2022-11-20T03:42:49.118Z,6.62
2022-11-20T03:45:18.587Z,6.56
2022-11-20T03:47:48.145Z,6.51
2022-11-20T03:50:16.304Z,6.57
2022-11-20T03:52:44.305Z,6.58
2022-11-20T03:55:13.722Z,6.56
2022-11-20T03:57:41.817Z,6.60
2022-11-20T04:00:10.558Z,6.66
2022-11-20T04:02:38.208Z,6.77
2022-11-20T04:05:08.283Z,6.75
2022-11-20T04:07:36.588Z,6.81
2022-11-20T04:10:04.826Z,6.84
2022-11-20T04:12:34.876Z,6.79
2022-11-20T04:15:02.791Z,6.86
2022-11-20T04:17:30.488Z,6.97
2022-11-20T04:19:58.190Z,6.98
2022-11-20T04:22:27.266Z,6.84
2022-11-20T04:24:55.003Z,6.70
2022-11-20T04:27:23.090Z,6.64
2022-11-20T04:29:50.780Z,6.62
2022-11-20T04:32:18.425Z,6.59
2022-11-20T04:34:46.071Z,6.59
2022-11-20T04:37:13.806Z,6.69
2022-11-20T04:39:43.055Z,6.75
2022-11-20T04:42:28.035Z,6.69
2022-11-20T04:44:55.753Z,6.70
2022-11-20T04:47:23.652Z,6.71
2022-11-20T04:49:51.430Z,6.71
2022-11-20T04:52:19.178Z,6.67
2022-11-20T04:54:48.164Z,6.73
2022-11-20T04:57:17.613Z,6.69
2022-11-20T04:59:45.266Z,6.69
2022-11-20T05:02:13.511Z,6.63
2022-11-20T05:04:41.239Z,6.62
2022-11-20T05:07:09.001Z,6.57
2022-11-20T05:09:36.853Z,6.49
2022-11-20T05:12:06.684Z,6.47
2022-11-20T05:14:34.424Z,6.60
2022-11-20T05:17:02.211Z,6.58
2022-11-20T05:19:29.896Z,6.67
2022-11-20T05:21:58.437Z,6.80
2022-11-20T05:24:26.089Z,6.80
2022-11-20T05:26:53.750Z,6.86
2022-11-20T05:29:23.039Z,6.90
2022-11-20T05:31:50.941Z,6.93
2022-11-20T05:34:18.683Z,6.80
2022-11-20T05:36:46.407Z,6.71
2022-11-20T05:39:16.169Z,6.69
2022-11-20T05:41:43.871Z,6.63
2022-11-20T05:44:12.488Z,6.60
2022-11-20T05:46:41.504Z,6.73
2022-11-20T05:49:09.284Z,6.77
2022-11-20T05:51:36.961Z,6.75
2022-11-20T05:54:04.714Z,6.69
2022-11-20T05:56:32.446Z,6.64
2022-11-20T05:59:00.157Z,6.63
2022-11-20T06:01:27.976Z,6.77
2022-11-20T06:03:57.296Z,6.78
2022-11-20T06:06:26.204Z,6.70
2022-11-20T06:08:53.925Z,6.72
2022-11-20T06:11:21.658Z,6.75
2022-11-20T06:13:50.781Z,6.66
2022-11-20T06:16:21.332Z,6.67
2022-11-20T06:18:49.444Z,6.71
2022-11-20T06:21:20.596Z,6.78
2022-11-20T06:23:49.027Z,6.84
2022-11-20T06:26:18.698Z,6.89
2022-11-20T06:28:46.988Z,6.97
2022-11-20T06:31:16.358Z,6.84
2022-11-20T06:33:44.899Z,6.81
2022-11-20T06:36:14.186Z,6.69
2022-11-20T06:38:43.982Z,6.77
2022-11-20T06:41:14.240Z,6.73
2022-11-20T06:43:42.252Z,6.68
2022-11-20T06:46:11.677Z,6.74
2022-11-20T06:48:39.355Z,6.75
2022-11-20T06:51:08.084Z,6.83
2022-11-20T06:53:36.578Z,6.87
2022-11-20T06:56:06.022Z,6.94
2022-11-20T06:58:35.267Z,6.98
2022-11-20T07:01:04.969Z,6.92
2022-11-20T07:03:32.752Z,6.92
2022-11-20T07:06:02.740Z,6.83
2022-11-20T07:08:31.756Z,6.89
2022-11-20T07:11:00.624Z,7.03
2022-11-20T07:13:30.561Z,7.13
2022-11-20T07:16:01.535Z,7.01
2022-11-20T07:18:29.304Z,6.95
2022-11-20T07:20:57.108Z,6.95
2022-11-20T07:23:24.828Z,6.86
2022-11-20T07:25:52.586Z,6.90
2022-11-20T07:28:20.232Z,6.93
2022-11-20T07:30:53.534Z,6.92
2022-11-20T07:33:21.619Z,6.84
2022-11-20T07:35:49.311Z,6.82
2022-11-20T07:38:17.047Z,6.87
2022-11-20T07:40:44.918Z,6.84
2022-11-20T07:43:12.697Z,6.93
2022-11-20T07:45:40.856Z,6.98
2022-11-20T07:48:09.905Z,6.96
2022-11-20T07:50:37.716Z,7.01
2022-11-20T07:53:06.433Z,7.07
2022-11-20T07:55:37.257Z,7.01
2022-11-20T07:58:06.602Z,6.99
2022-11-20T08:00:34.420Z,7.06
2022-11-20T08:03:05.568Z,7.09
2022-11-20T08:05:41.593Z,7.13
2022-11-20T08:08:09.293Z,7.13
2022-11-20T08:10:39.312Z,7.05
2022-11-20T08:13:24.653Z,7.00
2022-11-20T08:15:55.359Z,7.04
2022-11-20T08:18:31.262Z,7.04
2022-11-20T08:21:05.330Z,7.05
2022-11-20T08:23:33.213Z,7.10
2022-11-20T08:26:01.008Z,7.15
2022-11-20T08:28:28.712Z,7.26
2022-11-20T08:31:02.278Z,7.28
2022-11-20T08:33:30.770Z,7.33
2022-11-20T08:36:02.981Z,7.38
2022-11-20T08:38:31.402Z,7.29
2022-11-20T08:41:17.098Z,7.33
2022-11-20T08:43:44.855Z,7.37
2022-11-20T08:46:12.621Z,7.35
2022-11-20T08:48:40.242Z,7.32
2022-11-20T08:51:09.278Z,7.46
2022-11-20T08:53:36.927Z,7.41
2022-11-20T08:56:04.904Z,7.33
2022-11-20T08:58:48.860Z,7.36
2022-11-20T09:01:20.972Z,7.47
2022-11-20T09:03:49.167Z,7.45
2022-11-20T09:06:18.593Z,7.45
2022-11-20T09:08:46.508Z,7.49
2022-11-20T09:11:14.346Z,7.53
2022-11-20T09:13:42.206Z,7.50
2022-11-20T09:16:11.569Z,7.42
2022-11-20T09:18:40.094Z,7.39
2022-11-20T09:21:11.260Z,7.46
2022-11-20T09:23:41.051Z,7.57
2022-11-20T09:26:12.605Z,7.64
2022-11-20T09:28:41.064Z,7.61
2022-11-20T09:31:09.813Z,7.58
2022-11-20T09:33:38.049Z,7.70
2022-11-20T09:36:06.468Z,7.61
2022-11-20T09:38:34.271Z,7.50
2022-11-20T09:41:06.298Z,7.40
2022-11-20T09:43:52.052Z,7.36
2022-11-20T09:46:30.365Z,7.43
2022-11-20T09:49:14.923Z,7.56
2022-11-20T09:51:52.185Z,7.52
2022-11-20T09:54:21.958Z,7.52
2022-11-20T09:56:55.847Z,7.54
2022-11-20T09:59:35.916Z,7.62
2022-11-20T10:02:16.883Z,7.73
2022-11-20T10:04:55.464Z,7.80
2022-11-20T10:07:34.307Z,7.88
2022-11-20T10:10:02.625Z,7.90
2022-11-20T10:12:49.980Z,7.92
2022-11-20T10:15:31.812Z,7.85
2022-11-20T10:18:11.567Z,7.83
2022-11-20T10:20:48.749Z,7.78
2022-11-20T10:23:35.314Z,7.86
2022-11-20T10:26:05.238Z,7.84
2022-11-20T10:28:57.207Z,8.00
2022-11-20T10:31:33.995Z,8.05
2022-11-20T10:34:12.118Z,8.07
2022-11-20T10:36:46.087Z,8.05
2022-11-20T10:39:21.457Z,8.13
2022-11-20T10:41:53.820Z,8.11
2022-11-20T10:44:45.622Z,8.04
2022-11-20T10:47:16.576Z,8.10
2022-11-20T10:49:48.155Z,8.20
2022-11-20T10:52:35.169Z,8.27
2022-11-20T10:55:10.492Z,8.30
2022-11-20T10:57:53.420Z,8.28
2022-11-20T11:00:22.807Z,8.26
2022-11-20T11:02:52.387Z,8.12
2022-11-20T11:05:29.217Z,8.11
2022-11-20T11:07:58.479Z,8.11
2022-11-20T11:10:32.510Z,8.09
2022-11-20T11:13:00.440Z,8.01
2022-11-20T11:15:32.301Z,8.07
2022-11-20T11:18:00.084Z,8.19
2022-11-20T11:20:28.267Z,8.21
2022-11-20T11:22:58.152Z,8.47
2022-11-20T11:25:30.695Z,8.67
2022-11-20T11:28:02.015Z,8.86
2022-11-20T11:30:32.962Z,9.06
2022-11-20T11:33:08.798Z,9.41
2022-11-20T11:35:49.899Z,9.40
2022-11-20T11:38:32.786Z,9.26
2022-11-20T11:41:00.959Z,9.33
2022-11-20T11:43:49.662Z,9.50
2022-11-20T11:46:46.179Z,9.46
2022-11-20T11:49:20.682Z,9.30
2022-11-20T11:52:00.338Z,9.16
2022-11-20T11:54:36.086Z,9.12
2022-11-20T11:57:12.685Z,9.05
2022-11-20T11:59:54.564Z,8.90
2022-11-20T12:02:34.804Z,8.89
2022-11-20T12:05:11.179Z,8.93
2022-11-20T12:07:47.529Z,8.90
2022-11-20T12:10:23.696Z,8.84
2022-11-20T12:12:56.997Z,8.77
2022-11-20T12:15:32.844Z,8.77
2022-11-20T12:18:02.720Z,8.54
2022-11-20T12:20:40.169Z,8.44
2022-11-20T12:23:18.578Z,8.47
2022-11-20T12:25:53.915Z,8.47
2022-11-20T12:28:38.000Z,8.47
2022-11-20T12:31:25.798Z,8.50
2022-11-20T12:34:11.614Z,8.56
2022-11-20T12:36:47.974Z,8.67
2022-11-20T12:39:29.436Z,8.73
2022-11-20T12:42:32.343Z,8.75
2022-11-20T12:45:26.724Z,8.68
2022-11-20T12:48:09.458Z,8.76
2022-11-20T12:51:13.540Z,8.70
2022-11-20T12:53:45.927Z,8.68
2022-11-20T12:56:25.438Z,8.63
2022-11-20T12:59:04.693Z,8.66
2022-11-20T13:01:51.635Z,8.68
2022-11-20T13:04:32.491Z,8.68
2022-11-20T13:07:03.715Z,8.73
2022-11-20T13:09:32.279Z,8.73
2022-11-20T13:12:07.375Z,8.77
2022-11-20T13:14:39.621Z,8.83
2022-11-20T13:17:13.711Z,8.88
2022-11-20T13:19:41.918Z,8.93
2022-11-20T13:22:11.539Z,8.99
2022-11-20T13:24:39.383Z,9.05
2022-11-20T13:27:24.334Z,9.09
2022-11-20T13:30:04.617Z,9.12
2022-11-20T13:32:33.385Z,9.15
2022-11-20T13:35:02.719Z,9.20
2022-11-20T13:37:34.321Z,9.24
2022-11-20T13:40:24.959Z,9.25
2022-11-20T13:43:09.363Z,9.37
2022-11-20T13:45:37.102Z,9.42
2022-11-20T13:48:07.354Z,9.51
2022-11-20T13:50:48.307Z,9.47
2022-11-20T13:53:34.138Z,9.46
2022-11-20T13:56:07.471Z,9.48
2022-11-20T13:58:56.620Z,9.53
2022-11-20T14:01:27.226Z,9.53
2022-11-20T14:04:10.888Z,9.54
2022-11-20T14:06:44.597Z,9.59
2022-11-20T14:09:28.440Z,9.60
2022-11-20T14:11:56.165Z,9.65
2022-11-20T14:14:25.804Z,9.67
2022-11-20T14:16:55.357Z,9.67
2022-11-20T14:19:29.908Z,9.65
2022-11-20T14:22:12.627Z,9.62
2022-11-20T14:24:41.797Z,9.61
2022-11-20T14:27:15.365Z,9.65
2022-11-20T14:29:45.377Z,9.69
2022-11-20T14:32:13.539Z,9.63
2022-11-20T14:34:43.860Z,9.63
2022-11-20T14:37:17.229Z,9.62
2022-11-20T14:39:54.712Z,9.66
2022-11-20T14:42:25.028Z,9.64
2022-11-20T14:44:53.731Z,9.64
2022-11-20T14:47:25.571Z,9.66
2022-11-20T14:49:55.254Z,9.64
2022-11-20T14:52:24.649Z,9.63
2022-11-20T14:54:55.209Z,9.63
2022-11-20T14:57:28.053Z,9.65
2022-11-20T15:00:20.830Z,9.63
2022-11-20T15:02:50.679Z,9.58
2022-11-20T15:05:20.693Z,9.54
2022-11-20T15:07:50.700Z,9.52
2022-11-20T15:10:25.306Z,9.56
2022-11-20T15:12:54.688Z,9.53
2022-11-20T15:15:26.908Z,9.51
2022-11-20T15:17:55.302Z,9.50
2022-11-20T15:20:26.075Z,9.52
2022-11-20T15:22:53.990Z,9.49
2022-11-20T15:25:25.423Z,9.53
2022-11-20T15:27:56.905Z,9.52
2022-11-20T15:30:25.589Z,9.49
2022-11-20T15:32:53.277Z,9.48
2022-11-20T15:35:20.988Z,9.47
2022-11-20T15:37:49.088Z,9.44
2022-11-20T15:40:17.104Z,9.44
2022-11-20T15:43:00.129Z,9.41
2022-11-20T15:45:30.450Z,9.40
2022-11-20T15:47:58.284Z,9.35
2022-11-20T15:50:31.826Z,9.29
2022-11-20T15:52:59.924Z,9.29
2022-11-20T15:55:28.255Z,9.27
2022-11-20T15:57:57.414Z,9.33
2022-11-20T16:00:25.152Z,9.32
2022-11-20T16:02:52.853Z,9.34
2022-11-20T16:05:20.581Z,9.36
2022-11-20T16:07:48.266Z,9.33
2022-11-20T16:10:16.344Z,9.31
2022-11-20T16:13:01.415Z,9.27
2022-11-20T16:15:49.116Z,9.29
2022-11-20T16:18:19.261Z,9.30
2022-11-20T16:20:48.349Z,9.31
2022-11-20T16:23:17.472Z,9.28
2022-11-20T16:25:45.818Z,9.29
2022-11-20T16:28:18.602Z,9.30
2022-11-20T16:30:48.693Z,9.30
2022-11-20T16:33:18.074Z,9.29
2022-11-20T16:35:45.869Z,9.23
2022-11-20T16:38:13.907Z,9.18
2022-11-20T16:40:41.624Z,9.13
2022-11-20T16:43:11.773Z,9.10
2022-11-20T16:45:43.700Z,9.11
2022-11-20T16:48:17.869Z,9.09
2022-11-20T16:50:51.000Z,9.06
2022-11-20T16:53:19.704Z,9.13
2022-11-20T16:55:47.716Z,9.05
2022-11-20T16:58:15.740Z,9.04
2022-11-20T17:00:48.302Z,9.07
2022-11-20T17:03:19.311Z,9.03
2022-11-20T17:05:47.026Z,9.03
2022-11-20T17:08:14.744Z,9.01
2022-11-20T17:10:42.614Z,9.11
2022-11-20T17:13:10.406Z,9.04
2022-11-20T17:15:38.562Z,9.01
2022-11-20T17:18:06.435Z,8.91
2022-11-20T17:20:35.624Z,8.93
2022-11-20T17:23:03.309Z,8.89
2022-11-20T17:25:33.822Z,8.89
2022-11-20T17:28:01.521Z,8.90
2022-11-20T17:30:29.230Z,8.94
2022-11-20T17:32:57.034Z,8.89
2022-11-20T17:35:24.721Z,8.91
2022-11-20T17:37:53.804Z,8.81
2022-11-20T17:40:26.013Z,8.85
2022-11-20T17:42:55.173Z,8.81
2022-11-20T17:45:22.872Z,8.76
2022-11-20T17:47:50.634Z,8.76
2022-11-20T17:50:18.624Z,8.83
2022-11-20T17:52:46.552Z,8.82
2022-11-20T17:55:15.870Z,8.78
2022-11-20T17:57:56.721Z,8.78
2022-11-20T18:00:26.976Z,8.87
2022-11-20T18:02:55.249Z,8.82
2022-11-20T18:05:23.145Z,8.85
2022-11-20T18:07:53.764Z,8.83
2022-11-20T18:10:23.085Z,8.86
2022-11-20T18:12:50.925Z,8.92
2022-11-20T18:15:18.929Z,8.88
2022-11-20T18:17:46.803Z,8.89
2022-11-20T18:20:28.529Z,8.87
2022-11-20T18:22:57.440Z,8.83
2022-11-20T18:25:26.525Z,8.83
2022-11-20T18:27:54.290Z,8.80
2022-11-20T18:30:22.308Z,8.82
2022-11-20T18:32:50.173Z,8.76
2022-11-20T18:35:18.478Z,8.81
2022-11-20T18:37:46.355Z,8.84
2022-11-20T18:40:14.944Z,8.86
2022-11-20T18:43:01.232Z,8.90
2022-11-20T18:45:30.395Z,8.93
2022-11-20T18:47:58.154Z,8.96
2022-11-20T18:50:25.972Z,8.96
2022-11-20T18:52:53.749Z,9.08
2022-11-20T18:55:24.333Z,9.09
2022-11-20T18:57:55.170Z,9.03
2022-11-20T19:00:25.169Z,9.07
2022-11-20T19:02:55.181Z,9.11
2022-11-20T19:05:23.000Z,9.13
2022-11-20T19:07:51.106Z,9.14
2022-11-20T19:10:20.541Z,9.19
2022-11-20T19:12:48.808Z,9.09
2022-11-20T19:15:18.046Z,9.06
2022-11-20T19:17:45.882Z,9.06
2022-11-20T19:20:13.953Z,9.09
2022-11-20T19:22:41.752Z,9.03
2022-11-20T19:25:10.028Z,9.02
2022-11-20T19:27:38.471Z,9.07
2022-11-20T19:30:07.665Z,9.14
2022-11-20T19:32:37.036Z,9.11
2022-11-20T19:35:05.334Z,9.09
2022-11-20T19:37:34.503Z,9.06
2022-11-20T19:40:04.779Z,9.15
2022-11-20T19:42:33.363Z,9.11
2022-11-20T19:45:01.129Z,9.10
2022-11-20T19:47:52.676Z,9.11
2022-11-20T19:50:18.413Z,9.10
2022-11-20T19:52:46.333Z,9.06
2022-11-20T19:55:14.095Z,9.05
2022-11-20T19:57:42.019Z,9.00
2022-11-20T20:00:12.614Z,9.02
2022-11-20T20:02:40.793Z,9.06
2022-11-20T20:05:09.170Z,8.97
2022-11-20T20:07:40.190Z,8.92
2022-11-20T20:10:09.487Z,8.82
2022-11-20T20:12:37.354Z,8.78
2022-11-20T20:15:06.056Z,8.80
2022-11-20T20:17:33.882Z,8.74
2022-11-20T20:20:01.632Z,8.75
2022-11-20T20:22:29.538Z,8.75
2022-11-20T20:24:58.743Z,8.74
2022-11-20T20:27:26.620Z,8.70
2022-11-20T20:29:54.447Z,8.77
2022-11-20T20:32:22.184Z,8.74
2022-11-20T20:34:50.161Z,8.62
2022-11-20T20:37:18.070Z,8.58
2022-11-20T20:39:45.937Z,8.62
2022-11-20T20:42:15.089Z,8.72
2022-11-20T20:45:00.646Z,8.63
2022-11-20T20:47:31.296Z,8.57
2022-11-20T20:49:59.195Z,8.52
2022-11-20T20:52:27.864Z,8.50
2022-11-20T20:54:56.279Z,8.51
2022-11-20T20:57:27.708Z,8.40
2022-11-20T20:59:55.821Z,8.28
2022-11-20T21:02:24.434Z,8.20
2022-11-20T21:04:52.614Z,8.14
2022-11-20T21:07:20.749Z,8.13
2022-11-20T21:09:48.639Z,8.12
2022-11-20T21:12:16.613Z,8.13
2022-11-20T21:14:45.794Z,8.16
2022-11-20T21:17:15.525Z,8.08
2022-11-20T21:19:43.399Z,8.09
2022-11-20T21:22:10.437Z,8.04
2022-11-20T21:24:38.490Z,8.00
2022-11-20T21:27:08.026Z,7.90
2022-11-20T21:29:35.867Z,7.94
2022-11-20T21:32:05.301Z,7.91
2022-11-20T21:34:33.170Z,7.89
2022-11-20T21:37:01.022Z,7.86
2022-11-20T21:39:30.412Z,7.94
2022-11-20T21:41:58.268Z,7.99
2022-11-20T21:44:33.030Z,8.09
2022-11-20T21:47:00.855Z,8.20
2022-11-20T21:49:29.924Z,8.22
2022-11-20T21:51:57.703Z,8.26
2022-11-20T21:54:25.805Z,8.34
2022-11-20T21:56:53.883Z,8.40
2022-11-20T21:59:22.231Z,8.51
2022-11-20T22:01:50.175Z,8.62
2022-11-20T22:04:18.022Z,8.64
2022-11-20T22:06:47.217Z,8.65
2022-11-20T22:09:15.399Z,8.68
2022-11-20T22:11:43.262Z,8.74
2022-11-20T22:14:23.832Z,8.74
2022-11-20T22:16:53.907Z,8.80
2022-11-20T22:19:22.665Z,8.84
2022-11-20T22:21:52.310Z,8.89
2022-11-20T22:24:21.829Z,8.91
2022-11-20T22:26:50.670Z,8.94
2022-11-20T22:29:20.760Z,8.97
2022-11-20T22:31:48.891Z,8.98
2022-11-20T22:34:16.675Z,9.02
2022-11-20T22:36:44.646Z,9.09
2022-11-20T22:39:13.793Z,9.11
2022-11-20T22:41:41.494Z,9.10
2022-11-20T22:44:09.732Z,9.11
2022-11-20T22:46:38.236Z,9.09
2022-11-20T22:49:07.348Z,9.08
2022-11-20T22:51:37.146Z,9.13
2022-11-20T22:54:05.554Z,9.12
2022-11-20T22:56:35.149Z,9.12
2022-11-20T22:59:02.895Z,9.18
2022-11-20T23:01:32.215Z,9.22
2022-11-20T23:04:01.353Z,9.27
2022-11-20T23:06:29.701Z,9.22
2022-11-20T23:08:57.631Z,9.21
2022-11-20T23:11:27.185Z,9.24
2022-11-20T23:13:57.992Z,9.23
2022-11-20T23:16:27.054Z,9.29
2022-11-20T23:18:55.449Z,9.25
2022-11-20T23:21:23.185Z,9.24
2022-11-20T23:23:52.593Z,9.23
2022-11-20T23:26:22.351Z,9.25
2022-11-20T23:28:50.328Z,9.30
2022-11-20T23:31:19.456Z,9.33
2022-11-20T23:33:47.731Z,9.37
2022-11-20T23:36:15.688Z,9.36
2022-11-20T23:38:43.698Z,9.33
2022-11-20T23:41:12.405Z,9.32
2022-11-20T23:43:40.335Z,9.32
2022-11-20T23:46:11.432Z,9.39
2022-11-20T23:48:42.978Z,9.40
2022-11-20T23:51:10.756Z,9.46
2022-11-20T23:53:38.420Z,9.47
2022-11-20T23:56:06.872Z,9.49
2022-11-20T23:58:36.197Z,9.50
